Search for airport 
image banner adimage banner ad
image banner ad

SSBN - Belém Novo Airport

Located in Porto Alegre, Brazil

ICAO - SSBN, IATA -

Data provided by Airmate  

General information

Coordinates: S30°11'16" W51°10'58"
Elevation is 19 feet MSL.
Magnetic variation is -17° East
View others Airports in Rio Grande do Sul

Operational data

Open for public use
Current time UTC:
Current local time:
Weather at : SBPA - Salgado Filho ( 22 km )
METAR: SBPA 031600Z 26022KT 9999 SCT031 28/20 Q1003
TAF: TAF SBPA 030900Z 0312/0412 33008KT 8000 BKN008 TX26/0317Z TN21/0406Z PROB40 0312/0314 29015KT 5000 RA BKN010 BECMG 0315/0317 16012KT 9999 NSW BKN015 BECMG 0322/0324 SCT020 RMK PEN
View NOTAMs / SUP AIP / TFR affecting this airport [VIEW]
Communications frequencies: [VIEW]

Runways:

RWY identifierQFULength (ft)Width (ft)SurfaceLDA (ft)
08328198UNK
09361975UNK
27361975UNK

Airport contact information

Address: Porto Alegre Brazil

Other aviation service providers

Aviation club (not for profit)

Aeroclube Do Rio Grande Do Sul

Aeroclube Do Rio Grande Do Sul
ensino@args.com.br+55513245-6060

Satellite view of SSBN